sensor_id;sensor_type;location;lat;lon;timestamp;P1;durP1;ratioP1;P2;durP2;ratioP2
49464;SDS011;35358;49.342;8.802;2022-08-01T00:00:04;2.72;;;1.95;;
49464;SDS011;35358;49.342;8.802;2022-08-01T00:02:31;4.47;;;1.88;;
49464;SDS011;35358;49.342;8.802;2022-08-01T00:04:59;2.38;;;2.10;;
49464;SDS011;35358;49.342;8.802;2022-08-01T00:07:27;5.43;;;2.05;;
49464;SDS011;35358;49.342;8.802;2022-08-01T00:09:57;2.67;;;1.70;;
49464;SDS011;35358;49.342;8.802;2022-08-01T00:12:23;2.85;;;1.67;;
49464;SDS011;35358;49.342;8.802;2022-08-01T00:14:49;5.95;;;1.70;;
49464;SDS011;35358;49.342;8.802;2022-08-01T00:17:14;3.38;;;2.00;;
49464;SDS011;35358;49.342;8.802;2022-08-01T00:19:40;4.18;;;2.10;;
49464;SDS011;35358;49.342;8.802;2022-08-01T00:22:06;2.25;;;1.83;;
49464;SDS011;35358;49.342;8.802;2022-08-01T00:24:32;2.65;;;1.90;;
49464;SDS011;35358;49.342;8.802;2022-08-01T00:26:59;2.33;;;1.75;;
49464;SDS011;35358;49.342;8.802;2022-08-01T00:29:25;3.25;;;1.70;;
49464;SDS011;35358;49.342;8.802;2022-08-01T00:31:51;4.03;;;2.10;;
49464;SDS011;35358;49.342;8.802;2022-08-01T00:34:19;3.50;;;1.95;;
49464;SDS011;35358;49.342;8.802;2022-08-01T00:36:47;5.45;;;1.90;;
49464;SDS011;35358;49.342;8.802;2022-08-01T00:39:15;2.67;;;2.10;;
49464;SDS011;35358;49.342;8.802;2022-08-01T00:41:40;4.10;;;2.05;;
49464;SDS011;35358;49.342;8.802;2022-08-01T00:44:06;1.98;;;1.77;;
49464;SDS011;35358;49.342;8.802;2022-08-01T00:46:32;2.13;;;1.80;;
49464;SDS011;35358;49.342;8.802;2022-08-01T00:48:59;2.08;;;1.65;;
49464;SDS011;35358;49.342;8.802;2022-08-01T00:51:26;2.90;;;1.98;;
49464;SDS011;35358;49.342;8.802;2022-08-01T00:53:54;3.00;;;2.10;;
49464;SDS011;35358;49.342;8.802;2022-08-01T00:56:23;3.15;;;1.83;;
49464;SDS011;35358;49.342;8.802;2022-08-01T00:58:53;4.43;;;1.83;;
49464;SDS011;35358;49.342;8.802;2022-08-01T01:01:23;2.22;;;1.90;;
49464;SDS011;35358;49.342;8.802;2022-08-01T01:03:49;3.75;;;1.88;;
49464;SDS011;35358;49.342;8.802;2022-08-01T01:09:02;4.35;;;2.17;;
49464;SDS011;35358;49.342;8.802;2022-08-01T01:11:40;2.97;;;1.87;;
49464;SDS011;35358;49.342;8.802;2022-08-01T01:14:13;3.83;;;1.88;;
49464;SDS011;35358;49.342;8.802;2022-08-01T01:16:50;3.25;;;1.60;;
49464;SDS011;35358;49.342;8.802;2022-08-01T01:19:21;2.30;;;1.67;;
49464;SDS011;35358;49.342;8.802;2022-08-01T01:22:16;5.10;;;1.98;;
49464;SDS011;35358;49.342;8.802;2022-08-01T01:25:10;3.78;;;1.90;;
49464;SDS011;35358;49.342;8.802;2022-08-01T01:27:47;5.00;;;2.00;;
49464;SDS011;35358;49.342;8.802;2022-08-01T01:30:33;5.83;;;2.33;;
49464;SDS011;35358;49.342;8.802;2022-08-01T01:33:05;2.30;;;1.70;;
49464;SDS011;35358;49.342;8.802;2022-08-01T01:35:35;4.20;;;1.60;;
49464;SDS011;35358;49.342;8.802;2022-08-01T01:38:22;3.58;;;1.92;;
49464;SDS011;35358;49.342;8.802;2022-08-01T01:40:52;3.30;;;1.92;;
49464;SDS011;35358;49.342;8.802;2022-08-01T01:43:23;2.00;;;1.33;;
49464;SDS011;35358;49.342;8.802;2022-08-01T01:45:51;3.67;;;1.60;;
49464;SDS011;35358;49.342;8.802;2022-08-01T01:48:19;4.25;;;1.58;;
49464;SDS011;35358;49.342;8.802;2022-08-01T01:50:48;1.77;;;1.48;;
49464;SDS011;35358;49.342;8.802;2022-08-01T01:53:17;4.75;;;1.85;;
49464;SDS011;35358;49.342;8.802;2022-08-01T01:55:50;2.15;;;1.25;;
49464;SDS011;35358;49.342;8.802;2022-08-01T01:58:22;2.65;;;1.40;;
49464;SDS011;35358;49.342;8.802;2022-08-01T02:00:55;3.95;;;1.33;;
49464;SDS011;35358;49.342;8.802;2022-08-01T02:03:23;3.72;;;1.48;;
49464;SDS011;35358;49.342;8.802;2022-08-01T02:05:51;2.00;;;1.70;;
49464;SDS011;35358;49.342;8.802;2022-08-01T02:08:19;2.00;;;1.23;;
49464;SDS011;35358;49.342;8.802;2022-08-01T02:10:48;3.78;;;1.48;;
49464;SDS011;35358;49.342;8.802;2022-08-01T02:13:36;1.67;;;1.30;;
49464;SDS011;35358;49.342;8.802;2022-08-01T02:16:03;4.72;;;1.20;;
49464;SDS011;35358;49.342;8.802;2022-08-01T02:18:30;1.45;;;1.27;;
49464;SDS011;35358;49.342;8.802;2022-08-01T02:20:57;3.53;;;1.55;;
49464;SDS011;35358;49.342;8.802;2022-08-01T02:23:28;1.92;;;1.33;;
49464;SDS011;35358;49.342;8.802;2022-08-01T02:25:57;2.25;;;1.70;;
49464;SDS011;35358;49.342;8.802;2022-08-01T02:28:31;2.13;;;1.45;;
49464;SDS011;35358;49.342;8.802;2022-08-01T02:31:00;2.83;;;1.45;;
49464;SDS011;35358;49.342;8.802;2022-08-01T02:33:39;8.93;;;1.30;;
49464;SDS011;35358;49.342;8.802;2022-08-01T02:36:08;1.33;;;1.23;;
49464;SDS011;35358;49.342;8.802;2022-08-01T02:38:37;2.63;;;1.20;;
49464;SDS011;35358;49.342;8.802;2022-08-01T02:41:09;2.53;;;1.48;;
49464;SDS011;35358;49.342;8.802;2022-08-01T02:43:40;3.15;;;1.50;;
49464;SDS011;35358;49.342;8.802;2022-08-01T02:46:15;2.67;;;1.50;;
49464;SDS011;35358;49.342;8.802;2022-08-01T02:48:46;2.70;;;1.52;;
49464;SDS011;35358;49.342;8.802;2022-08-01T02:51:13;2.33;;;1.42;;
49464;SDS011;35358;49.342;8.802;2022-08-01T02:53:43;1.45;;;1.27;;
49464;SDS011;35358;49.342;8.802;2022-08-01T02:56:10;1.95;;;1.33;;
49464;SDS011;35358;49.342;8.802;2022-08-01T02:58:36;2.17;;;1.70;;
49464;SDS011;35358;49.342;8.802;2022-08-01T03:01:06;1.80;;;1.17;;
49464;SDS011;35358;49.342;8.802;2022-08-01T03:03:36;2.08;;;1.45;;
49464;SDS011;35358;49.342;8.802;2022-08-01T03:06:05;2.42;;;1.55;;
49464;SDS011;35358;49.342;8.802;2022-08-01T03:08:32;2.58;;;1.30;;
49464;SDS011;35358;49.342;8.802;2022-08-01T03:11:03;2.15;;;1.48;;
49464;SDS011;35358;49.342;8.802;2022-08-01T03:13:33;3.22;;;1.50;;
49464;SDS011;35358;49.342;8.802;2022-08-01T03:16:01;1.95;;;1.20;;
49464;SDS011;35358;49.342;8.802;2022-08-01T03:18:28;2.00;;;1.55;;
49464;SDS011;35358;49.342;8.802;2022-08-01T03:20:56;3.22;;;1.50;;
49464;SDS011;35358;49.342;8.802;2022-08-01T03:23:24;1.77;;;1.38;;
49464;SDS011;35358;49.342;8.802;2022-08-01T03:25:52;3.58;;;1.27;;
49464;SDS011;35358;49.342;8.802;2022-08-01T03:28:18;4.50;;;1.70;;
49464;SDS011;35358;49.342;8.802;2022-08-01T03:30:49;1.38;;;1.15;;
49464;SDS011;35358;49.342;8.802;2022-08-01T03:33:20;2.20;;;1.50;;
49464;SDS011;35358;49.342;8.802;2022-08-01T03:35:49;2.75;;;1.27;;
49464;SDS011;35358;49.342;8.802;2022-08-01T03:38:21;2.10;;;1.25;;
49464;SDS011;35358;49.342;8.802;2022-08-01T03:41:22;5.28;;;1.52;;
49464;SDS011;35358;49.342;8.802;2022-08-01T03:44:00;2.70;;;1.50;;
49464;SDS011;35358;49.342;8.802;2022-08-01T03:46:36;3.40;;;1.35;;
49464;SDS011;35358;49.342;8.802;2022-08-01T03:49:20;4.95;;;2.17;;
49464;SDS011;35358;49.342;8.802;2022-08-01T03:51:48;1.92;;;1.60;;
49464;SDS011;35358;49.342;8.802;2022-08-01T03:56:50;2.42;;;1.20;;
49464;SDS011;35358;49.342;8.802;2022-08-01T03:59:19;3.92;;;1.60;;
49464;SDS011;35358;49.342;8.802;2022-08-01T04:01:48;2.83;;;1.70;;
49464;SDS011;35358;49.342;8.802;2022-08-01T04:04:14;2.58;;;1.55;;
49464;SDS011;35358;49.342;8.802;2022-08-01T04:06:41;2.50;;;1.40;;
49464;SDS011;35358;49.342;8.802;2022-08-01T04:09:08;2.03;;;1.80;;
49464;SDS011;35358;49.342;8.802;2022-08-01T04:11:37;2.70;;;1.80;;
49464;SDS011;35358;49.342;8.802;2022-08-01T04:14:03;1.50;;;1.40;;
49464;SDS011;35358;49.342;8.802;2022-08-01T04:16:29;2.88;;;1.83;;
49464;SDS011;35358;49.342;8.802;2022-08-01T04:18:54;3.08;;;1.88;;
49464;SDS011;35358;49.342;8.802;2022-08-01T04:21:23;4.65;;;2.30;;
49464;SDS011;35358;49.342;8.802;2022-08-01T04:23:54;2.90;;;2.20;;
49464;SDS011;35358;49.342;8.802;2022-08-01T04:26:24;3.25;;;1.90;;
49464;SDS011;35358;49.342;8.802;2022-08-01T04:28:50;3.33;;;2.10;;
49464;SDS011;35358;49.342;8.802;2022-08-01T04:31:20;3.22;;;1.88;;
49464;SDS011;35358;49.342;8.802;2022-08-01T04:33:47;6.22;;;2.30;;
49464;SDS011;35358;49.342;8.802;2022-08-01T04:36:17;3.72;;;1.85;;
49464;SDS011;35358;49.342;8.802;2022-08-01T04:38:45;3.97;;;1.80;;
49464;SDS011;35358;49.342;8.802;2022-08-01T04:41:15;4.10;;;2.20;;
49464;SDS011;35358;49.342;8.802;2022-08-01T04:43:42;2.20;;;1.95;;
49464;SDS011;35358;49.342;8.802;2022-08-01T04:46:12;2.28;;;1.73;;
49464;SDS011;35358;49.342;8.802;2022-08-01T04:48:39;1.77;;;1.67;;
49464;SDS011;35358;49.342;8.802;2022-08-01T04:51:13;2.60;;;1.85;;
49464;SDS011;35358;49.342;8.802;2022-08-01T04:53:43;4.95;;;2.00;;
49464;SDS011;35358;49.342;8.802;2022-08-01T04:56:11;1.73;;;1.38;;
49464;SDS011;35358;49.342;8.802;2022-08-01T04:58:38;1.90;;;1.73;;
49464;SDS011;35358;49.342;8.802;2022-08-01T05:01:05;2.53;;;1.77;;
49464;SDS011;35358;49.342;8.802;2022-08-01T05:03:31;2.47;;;1.75;;
49464;SDS011;35358;49.342;8.802;2022-08-01T05:05:59;4.88;;;2.15;;
49464;SDS011;35358;49.342;8.802;2022-08-01T05:08:25;4.53;;;2.20;;
49464;SDS011;35358;49.342;8.802;2022-08-01T05:10:51;3.83;;;1.92;;
49464;SDS011;35358;49.342;8.802;2022-08-01T05:13:17;2.78;;;2.20;;
49464;SDS011;35358;49.342;8.802;2022-08-01T05:15:43;4.85;;;2.17;;
49464;SDS011;35358;49.342;8.802;2022-08-01T05:18:09;7.57;;;2.70;;
49464;SDS011;35358;49.342;8.802;2022-08-01T05:20:37;2.45;;;2.20;;
49464;SDS011;35358;49.342;8.802;2022-08-01T05:23:03;2.83;;;2.17;;
49464;SDS011;35358;49.342;8.802;2022-08-01T05:25:32;2.45;;;2.25;;
49464;SDS011;35358;49.342;8.802;2022-08-01T05:28:00;2.60;;;2.20;;
49464;SDS011;35358;49.342;8.802;2022-08-01T05:30:28;2.63;;;2.10;;
49464;SDS011;35358;49.342;8.802;2022-08-01T05:32:54;2.35;;;2.08;;
49464;SDS011;35358;49.342;8.802;2022-08-01T05:35:19;4.53;;;2.30;;
49464;SDS011;35358;49.342;8.802;2022-08-01T05:37:45;2.97;;;2.25;;
49464;SDS011;35358;49.342;8.802;2022-08-01T05:40:13;3.90;;;2.50;;
49464;SDS011;35358;49.342;8.802;2022-08-01T05:42:40;3.20;;;2.10;;
49464;SDS011;35358;49.342;8.802;2022-08-01T05:45:08;5.15;;;2.15;;
49464;SDS011;35358;49.342;8.802;2022-08-01T05:47:35;3.33;;;2.38;;
49464;SDS011;35358;49.342;8.802;2022-08-01T05:50:03;8.55;;;2.50;;
49464;SDS011;35358;49.342;8.802;2022-08-01T05:52:35;6.40;;;2.53;;
49464;SDS011;35358;49.342;8.802;2022-08-01T05:55:01;3.85;;;2.28;;
49464;SDS011;35358;49.342;8.802;2022-08-01T05:57:27;4.93;;;2.55;;
49464;SDS011;35358;49.342;8.802;2022-08-01T05:59:53;8.00;;;2.80;;
49464;SDS011;35358;49.342;8.802;2022-08-01T06:02:18;4.32;;;2.45;;
49464;SDS011;35358;49.342;8.802;2022-08-01T06:04:44;7.93;;;2.88;;
49464;SDS011;35358;49.342;8.802;2022-08-01T06:07:12;4.30;;;2.40;;
49464;SDS011;35358;49.342;8.802;2022-08-01T06:09:39;3.70;;;2.63;;
49464;SDS011;35358;49.342;8.802;2022-08-01T06:12:05;4.45;;;2.95;;
49464;SDS011;35358;49.342;8.802;2022-08-01T06:14:31;14.65;;;4.68;;
49464;SDS011;35358;49.342;8.802;2022-08-01T06:16:59;9.07;;;3.97;;
49464;SDS011;35358;49.342;8.802;2022-08-01T06:19:25;4.90;;;3.30;;
49464;SDS011;35358;49.342;8.802;2022-08-01T06:21:51;5.28;;;2.90;;
49464;SDS011;35358;49.342;8.802;2022-08-01T06:24:19;7.40;;;3.33;;
49464;SDS011;35358;49.342;8.802;2022-08-01T06:26:44;5.15;;;4.25;;
49464;SDS011;35358;49.342;8.802;2022-08-01T06:29:12;7.40;;;3.72;;
49464;SDS011;35358;49.342;8.802;2022-08-01T06:31:38;4.18;;;3.15;;
49464;SDS011;35358;49.342;8.802;2022-08-01T06:34:06;6.75;;;3.50;;
49464;SDS011;35358;49.342;8.802;2022-08-01T06:36:31;7.78;;;3.05;;
49464;SDS011;35358;49.342;8.802;2022-08-01T06:38:57;5.68;;;2.55;;
49464;SDS011;35358;49.342;8.802;2022-08-01T06:41:23;7.35;;;2.70;;
49464;SDS011;35358;49.342;8.802;2022-08-01T06:43:48;3.42;;;2.65;;
49464;SDS011;35358;49.342;8.802;2022-08-01T06:46:14;5.75;;;2.53;;
49464;SDS011;35358;49.342;8.802;2022-08-01T06:48:39;3.72;;;2.53;;
49464;SDS011;35358;49.342;8.802;2022-08-01T06:51:05;3.95;;;2.13;;
49464;SDS011;35358;49.342;8.802;2022-08-01T06:53:37;4.85;;;2.40;;
49464;SDS011;35358;49.342;8.802;2022-08-01T06:56:06;2.53;;;2.05;;
49464;SDS011;35358;49.342;8.802;2022-08-01T06:58:33;3.15;;;2.30;;
49464;SDS011;35358;49.342;8.802;2022-08-01T07:01:02;3.85;;;1.67;;
49464;SDS011;35358;49.342;8.802;2022-08-01T07:03:32;2.28;;;1.90;;
49464;SDS011;35358;49.342;8.802;2022-08-01T07:06:01;3.15;;;1.70;;
49464;SDS011;35358;49.342;8.802;2022-08-01T07:08:26;4.35;;;1.98;;
49464;SDS011;35358;49.342;8.802;2022-08-01T07:10:52;4.18;;;1.88;;
49464;SDS011;35358;49.342;8.802;2022-08-01T07:13:17;2.35;;;1.52;;
49464;SDS011;35358;49.342;8.802;2022-08-01T07:15:48;4.10;;;1.60;;
49464;SDS011;35358;49.342;8.802;2022-08-01T07:18:13;5.07;;;1.63;;
49464;SDS011;35358;49.342;8.802;2022-08-01T07:20:41;2.55;;;1.40;;
49464;SDS011;35358;49.342;8.802;2022-08-01T07:23:08;1.57;;;1.07;;
49464;SDS011;35358;49.342;8.802;2022-08-01T07:25:33;4.00;;;1.75;;
49464;SDS011;35358;49.342;8.802;2022-08-01T07:27:59;2.20;;;1.30;;
49464;SDS011;35358;49.342;8.802;2022-08-01T07:30:29;3.47;;;1.10;;
49464;SDS011;35358;49.342;8.802;2022-08-01T07:32:59;4.45;;;1.67;;
49464;SDS011;35358;49.342;8.802;2022-08-01T07:35:28;2.57;;;1.23;;
49464;SDS011;35358;49.342;8.802;2022-08-01T07:37:55;2.25;;;1.00;;
49464;SDS011;35358;49.342;8.802;2022-08-01T07:40:21;2.10;;;1.30;;
49464;SDS011;35358;49.342;8.802;2022-08-01T07:42:47;3.13;;;1.25;;
49464;SDS011;35358;49.342;8.802;2022-08-01T07:45:12;6.53;;;1.40;;
49464;SDS011;35358;49.342;8.802;2022-08-01T07:47:42;2.05;;;1.02;;
49464;SDS011;35358;49.342;8.802;2022-08-01T07:50:07;1.60;;;1.20;;
49464;SDS011;35358;49.342;8.802;2022-08-01T07:52:36;3.95;;;1.23;;
49464;SDS011;35358;49.342;8.802;2022-08-01T07:55:06;2.72;;;1.17;;
49464;SDS011;35358;49.342;8.802;2022-08-01T07:57:32;7.03;;;1.25;;
49464;SDS011;35358;49.342;8.802;2022-08-01T07:59:58;3.85;;;1.40;;
49464;SDS011;35358;49.342;8.802;2022-08-01T08:02:26;2.05;;;1.20;;
49464;SDS011;35358;49.342;8.802;2022-08-01T08:04:54;2.42;;;1.20;;
49464;SDS011;35358;49.342;8.802;2022-08-01T08:07:19;1.65;;;1.10;;
49464;SDS011;35358;49.342;8.802;2022-08-01T08:09:47;3.67;;;1.17;;
49464;SDS011;35358;49.342;8.802;2022-08-01T08:12:13;1.65;;;1.00;;
49464;SDS011;35358;49.342;8.802;2022-08-01T08:14:38;1.52;;;0.80;;
49464;SDS011;35358;49.342;8.802;2022-08-01T08:17:04;2.92;;;0.75;;
49464;SDS011;35358;49.342;8.802;2022-08-01T08:19:30;3.50;;;0.93;;
49464;SDS011;35358;49.342;8.802;2022-08-01T08:21:58;3.50;;;1.30;;
49464;SDS011;35358;49.342;8.802;2022-08-01T08:24:28;1.88;;;1.02;;
49464;SDS011;35358;49.342;8.802;2022-08-01T08:26:57;2.40;;;0.70;;
49464;SDS011;35358;49.342;8.802;2022-08-01T08:29:24;2.72;;;1.25;;
49464;SDS011;35358;49.342;8.802;2022-08-01T08:31:54;3.15;;;1.20;;
49464;SDS011;35358;49.342;8.802;2022-08-01T08:34:22;5.20;;;0.95;;
49464;SDS011;35358;49.342;8.802;2022-08-01T08:36:48;1.95;;;0.73;;
49464;SDS011;35358;49.342;8.802;2022-08-01T08:39:15;1.30;;;0.77;;
49464;SDS011;35358;49.342;8.802;2022-08-01T08:41:43;2.03;;;0.67;;
49464;SDS011;35358;49.342;8.802;2022-08-01T08:44:09;1.88;;;0.60;;
49464;SDS011;35358;49.342;8.802;2022-08-01T08:46:40;2.15;;;1.23;;
49464;SDS011;35358;49.342;8.802;2022-08-01T08:49:07;2.15;;;0.80;;
49464;SDS011;35358;49.342;8.802;2022-08-01T08:51:34;3.42;;;0.95;;
49464;SDS011;35358;49.342;8.802;2022-08-01T08:54:05;1.77;;;0.88;;
49464;SDS011;35358;49.342;8.802;2022-08-01T08:56:31;2.58;;;0.88;;
49464;SDS011;35358;49.342;8.802;2022-08-01T08:59:00;2.05;;;1.00;;
49464;SDS011;35358;49.342;8.802;2022-08-01T09:01:27;2.33;;;1.05;;
49464;SDS011;35358;49.342;8.802;2022-08-01T09:03:53;2.08;;;0.77;;
49464;SDS011;35358;49.342;8.802;2022-08-01T09:06:19;0.80;;;0.60;;
49464;SDS011;35358;49.342;8.802;2022-08-01T09:08:45;1.30;;;0.70;;
49464;SDS011;35358;49.342;8.802;2022-08-01T09:11:13;1.48;;;1.23;;
49464;SDS011;35358;49.342;8.802;2022-08-01T09:13:41;3.08;;;1.05;;
49464;SDS011;35358;49.342;8.802;2022-08-01T09:16:30;1.45;;;0.82;;
49464;SDS011;35358;49.342;8.802;2022-08-01T09:19:10;2.63;;;1.02;;
49464;SDS011;35358;49.342;8.802;2022-08-01T09:21:54;2.97;;;1.23;;
49464;SDS011;35358;49.342;8.802;2022-08-01T09:24:22;1.05;;;0.85;;
49464;SDS011;35358;49.342;8.802;2022-08-01T09:26:49;6.20;;;0.93;;
49464;SDS011;35358;49.342;8.802;2022-08-01T09:29:18;3.80;;;0.73;;
49464;SDS011;35358;49.342;8.802;2022-08-01T09:31:45;1.98;;;0.60;;
49464;SDS011;35358;49.342;8.802;2022-08-01T09:34:11;1.95;;;0.98;;
49464;SDS011;35358;49.342;8.802;2022-08-01T09:36:50;2.40;;;0.60;;
49464;SDS011;35358;49.342;8.802;2022-08-01T09:39:17;1.80;;;1.00;;
49464;SDS011;35358;49.342;8.802;2022-08-01T09:41:44;1.50;;;0.77;;
49464;SDS011;35358;49.342;8.802;2022-08-01T09:44:10;2.78;;;1.15;;
49464;SDS011;35358;49.342;8.802;2022-08-01T09:46:51;3.72;;;0.70;;
49464;SDS011;35358;49.342;8.802;2022-08-01T09:49:26;0.70;;;0.70;;
49464;SDS011;35358;49.342;8.802;2022-08-01T09:51:59;2.10;;;0.98;;
49464;SDS011;35358;49.342;8.802;2022-08-01T09:54:37;0.88;;;0.70;;
49464;SDS011;35358;49.342;8.802;2022-08-01T09:57:13;2.13;;;0.88;;
49464;SDS011;35358;49.342;8.802;2022-08-01T09:59:46;3.72;;;0.90;;
49464;SDS011;35358;49.342;8.802;2022-08-01T10:02:29;2.58;;;0.77;;
49464;SDS011;35358;49.342;8.802;2022-08-01T10:04:57;1.58;;;0.70;;
49464;SDS011;35358;49.342;8.802;2022-08-01T10:07:23;1.55;;;0.70;;
49464;SDS011;35358;49.342;8.802;2022-08-01T10:09:48;2.33;;;0.63;;
49464;SDS011;35358;49.342;8.802;2022-08-01T10:12:17;3.33;;;1.00;;
49464;SDS011;35358;49.342;8.802;2022-08-01T10:14:50;3.85;;;0.82;;
49464;SDS011;35358;49.342;8.802;2022-08-01T10:17:19;1.98;;;0.70;;
49464;SDS011;35358;49.342;8.802;2022-08-01T10:19:49;0.68;;;0.40;;
49464;SDS011;35358;49.342;8.802;2022-08-01T10:22:19;2.58;;;0.70;;
49464;SDS011;35358;49.342;8.802;2022-08-01T10:24:53;1.27;;;0.50;;
49464;SDS011;35358;49.342;8.802;2022-08-01T10:27:20;2.10;;;0.60;;
49464;SDS011;35358;49.342;8.802;2022-08-01T10:29:51;0.75;;;0.60;;
49464;SDS011;35358;49.342;8.802;2022-08-01T10:32:23;1.30;;;0.65;;
49464;SDS011;35358;49.342;8.802;2022-08-01T10:34:49;0.80;;;0.60;;
49464;SDS011;35358;49.342;8.802;2022-08-01T10:37:15;2.95;;;0.50;;
49464;SDS011;35358;49.342;8.802;2022-08-01T10:39:44;4.90;;;0.90;;
49464;SDS011;35358;49.342;8.802;2022-08-01T10:42:11;2.88;;;0.70;;
49464;SDS011;35358;49.342;8.802;2022-08-01T10:44:39;2.00;;;0.50;;
49464;SDS011;35358;49.342;8.802;2022-08-01T10:47:09;0.60;;;0.32;;
49464;SDS011;35358;49.342;8.802;2022-08-01T10:49:50;1.23;;;0.40;;
49464;SDS011;35358;49.342;8.802;2022-08-01T10:52:29;1.38;;;0.57;;
49464;SDS011;35358;49.342;8.802;2022-08-01T10:55:05;5.70;;;0.60;;
49464;SDS011;35358;49.342;8.802;2022-08-01T10:57:44;1.77;;;0.40;;
49464;SDS011;35358;49.342;8.802;2022-08-01T11:00:20;1.50;;;0.50;;
49464;SDS011;35358;49.342;8.802;2022-08-01T11:02:58;1.13;;;0.80;;
49464;SDS011;35358;49.342;8.802;2022-08-01T11:05:28;1.42;;;0.60;;
49464;SDS011;35358;49.342;8.802;2022-08-01T11:08:01;1.30;;;0.70;;
49464;SDS011;35358;49.342;8.802;2022-08-01T11:10:46;3.60;;;0.80;;
49464;SDS011;35358;49.342;8.802;2022-08-01T11:13:12;4.25;;;0.60;;
49464;SDS011;35358;49.342;8.802;2022-08-01T11:15:41;0.57;;;0.52;;
49464;SDS011;35358;49.342;8.802;2022-08-01T11:20:54;1.00;;;0.50;;
49464;SDS011;35358;49.342;8.802;2022-08-01T11:23:25;1.52;;;0.50;;
49464;SDS011;35358;49.342;8.802;2022-08-01T11:28:29;1.88;;;0.75;;
49464;SDS011;35358;49.342;8.802;2022-08-01T11:38:44;2.55;;;0.50;;
49464;SDS011;35358;49.342;8.802;2022-08-01T11:41:21;2.20;;;0.77;;
49464;SDS011;35358;49.342;8.802;2022-08-01T11:44:05;2.25;;;0.77;;
49464;SDS011;35358;49.342;8.802;2022-08-01T11:57:14;2.45;;;0.68;;
49464;SDS011;35358;49.342;8.802;2022-08-01T11:59:47;3.22;;;0.80;;
49464;SDS011;35358;49.342;8.802;2022-08-01T12:02:27;5.93;;;0.75;;
49464;SDS011;35358;49.342;8.802;2022-08-01T12:07:26;0.98;;;0.65;;
49464;SDS011;35358;49.342;8.802;2022-08-01T12:10:01;1.15;;;0.60;;
49464;SDS011;35358;49.342;8.802;2022-08-01T12:12:27;1.58;;;0.50;;
49464;SDS011;35358;49.342;8.802;2022-08-01T12:14:54;2.00;;;0.70;;
49464;SDS011;35358;49.342;8.802;2022-08-01T12:17:49;1.65;;;0.68;;
49464;SDS011;35358;49.342;8.802;2022-08-01T12:20:15;1.45;;;0.70;;
49464;SDS011;35358;49.342;8.802;2022-08-01T12:22:45;0.70;;;0.60;;
49464;SDS011;35358;49.342;8.802;2022-08-01T12:25:15;0.52;;;0.50;;
49464;SDS011;35358;49.342;8.802;2022-08-01T12:27:44;0.82;;;0.50;;
49464;SDS011;35358;49.342;8.802;2022-08-01T12:30:12;1.20;;;0.70;;
49464;SDS011;35358;49.342;8.802;2022-08-01T12:32:47;0.77;;;0.50;;
49464;SDS011;35358;49.342;8.802;2022-08-01T12:35:17;2.92;;;0.70;;
49464;SDS011;35358;49.342;8.802;2022-08-01T12:37:52;1.50;;;0.40;;
49464;SDS011;35358;49.342;8.802;2022-08-01T12:40:21;0.95;;;0.55;;
49464;SDS011;35358;49.342;8.802;2022-08-01T12:42:51;1.27;;;0.63;;
49464;SDS011;35358;49.342;8.802;2022-08-01T12:45:23;1.55;;;0.60;;
49464;SDS011;35358;49.342;8.802;2022-08-01T12:47:57;0.80;;;0.60;;
49464;SDS011;35358;49.342;8.802;2022-08-01T12:50:27;1.33;;;0.55;;
49464;SDS011;35358;49.342;8.802;2022-08-01T12:52:54;0.82;;;0.52;;
49464;SDS011;35358;49.342;8.802;2022-08-01T12:55:24;4.53;;;0.75;;
49464;SDS011;35358;49.342;8.802;2022-08-01T13:00:35;0.70;;;0.70;;
49464;SDS011;35358;49.342;8.802;2022-08-01T13:03:05;1.10;;;0.50;;
49464;SDS011;35358;49.342;8.802;2022-08-01T13:05:45;3.55;;;1.27;;
49464;SDS011;35358;49.342;8.802;2022-08-01T13:08:15;0.60;;;0.52;;
49464;SDS011;35358;49.342;8.802;2022-08-01T13:11:11;2.00;;;0.63;;
49464;SDS011;35358;49.342;8.802;2022-08-01T13:13:43;0.82;;;0.80;;
49464;SDS011;35358;49.342;8.802;2022-08-01T13:16:12;2.08;;;0.65;;
49464;SDS011;35358;49.342;8.802;2022-08-01T13:18:37;1.67;;;0.60;;
49464;SDS011;35358;49.342;8.802;2022-08-01T13:21:12;1.92;;;0.80;;
49464;SDS011;35358;49.342;8.802;2022-08-01T13:23:39;2.20;;;0.95;;
49464;SDS011;35358;49.342;8.802;2022-08-01T13:26:06;5.57;;;1.00;;
49464;SDS011;35358;49.342;8.802;2022-08-01T13:28:32;1.88;;;0.82;;
49464;SDS011;35358;49.342;8.802;2022-08-01T13:31:04;1.60;;;0.88;;
49464;SDS011;35358;49.342;8.802;2022-08-01T13:36:08;1.00;;;0.75;;
49464;SDS011;35358;49.342;8.802;2022-08-01T13:38:34;1.92;;;0.75;;
49464;SDS011;35358;49.342;8.802;2022-08-01T13:41:18;0.50;;;0.50;;
49464;SDS011;35358;49.342;8.802;2022-08-01T13:43:44;0.60;;;0.60;;
49464;SDS011;35358;49.342;8.802;2022-08-01T13:46:12;0.77;;;0.57;;
49464;SDS011;35358;49.342;8.802;2022-08-01T13:48:39;1.02;;;0.80;;
49464;SDS011;35358;49.342;8.802;2022-08-01T13:51:05;2.28;;;0.70;;
49464;SDS011;35358;49.342;8.802;2022-08-01T13:53:31;1.05;;;0.57;;
49464;SDS011;35358;49.342;8.802;2022-08-01T13:55:56;1.65;;;0.98;;
49464;SDS011;35358;49.342;8.802;2022-08-01T13:58:24;0.77;;;0.77;;
49464;SDS011;35358;49.342;8.802;2022-08-01T14:00:50;1.20;;;0.70;;
49464;SDS011;35358;49.342;8.802;2022-08-01T14:03:16;3.40;;;0.60;;
49464;SDS011;35358;49.342;8.802;2022-08-01T14:05:42;1.45;;;0.88;;
49464;SDS011;35358;49.342;8.802;2022-08-01T14:08:10;1.10;;;0.70;;
49464;SDS011;35358;49.342;8.802;2022-08-01T14:10:39;1.20;;;0.60;;
49464;SDS011;35358;49.342;8.802;2022-08-01T14:13:07;0.63;;;0.60;;
49464;SDS011;35358;49.342;8.802;2022-08-01T14:15:32;1.20;;;0.70;;
49464;SDS011;35358;49.342;8.802;2022-08-01T14:17:58;2.17;;;0.80;;
49464;SDS011;35358;49.342;8.802;2022-08-01T14:20:26;2.10;;;0.80;;
49464;SDS011;35358;49.342;8.802;2022-08-01T14:22:51;0.82;;;0.70;;
49464;SDS011;35358;49.342;8.802;2022-08-01T14:25:19;1.52;;;0.82;;
49464;SDS011;35358;49.342;8.802;2022-08-01T14:27:47;0.77;;;0.63;;
49464;SDS011;35358;49.342;8.802;2022-08-01T14:30:13;1.13;;;0.70;;
49464;SDS011;35358;49.342;8.802;2022-08-01T14:32:39;1.85;;;0.63;;
49464;SDS011;35358;49.342;8.802;2022-08-01T14:35:07;1.35;;;0.75;;
49464;SDS011;35358;49.342;8.802;2022-08-01T14:37:33;2.08;;;0.65;;
49464;SDS011;35358;49.342;8.802;2022-08-01T14:39:59;1.55;;;0.77;;
49464;SDS011;35358;49.342;8.802;2022-08-01T14:42:29;1.13;;;0.52;;
49464;SDS011;35358;49.342;8.802;2022-08-01T14:44:55;0.73;;;0.50;;
49464;SDS011;35358;49.342;8.802;2022-08-01T14:47:20;0.95;;;0.60;;
49464;SDS011;35358;49.342;8.802;2022-08-01T14:49:48;3.65;;;0.98;;
49464;SDS011;35358;49.342;8.802;2022-08-01T14:52:17;1.95;;;0.63;;
49464;SDS011;35358;49.342;8.802;2022-08-01T14:54:43;0.90;;;0.60;;
49464;SDS011;35358;49.342;8.802;2022-08-01T14:57:08;1.00;;;0.85;;
49464;SDS011;35358;49.342;8.802;2022-08-01T14:59:36;2.15;;;0.70;;
49464;SDS011;35358;49.342;8.802;2022-08-01T15:02:02;0.93;;;0.60;;
49464;SDS011;35358;49.342;8.802;2022-08-01T15:04:28;2.47;;;0.82;;
49464;SDS011;35358;49.342;8.802;2022-08-01T15:06:55;3.03;;;0.73;;
49464;SDS011;35358;49.342;8.802;2022-08-01T15:09:21;0.85;;;0.70;;
49464;SDS011;35358;49.342;8.802;2022-08-01T15:11:51;3.03;;;0.68;;
49464;SDS011;35358;49.342;8.802;2022-08-01T15:14:17;1.60;;;0.70;;
49464;SDS011;35358;49.342;8.802;2022-08-01T15:17:01;1.25;;;0.80;;
49464;SDS011;35358;49.342;8.802;2022-08-01T15:19:30;0.98;;;0.52;;
49464;SDS011;35358;49.342;8.802;2022-08-01T15:21:58;1.58;;;0.85;;
49464;SDS011;35358;49.342;8.802;2022-08-01T15:24:23;1.50;;;0.63;;
49464;SDS011;35358;49.342;8.802;2022-08-01T15:26:49;1.75;;;0.60;;
49464;SDS011;35358;49.342;8.802;2022-08-01T15:29:17;0.57;;;0.47;;
49464;SDS011;35358;49.342;8.802;2022-08-01T15:31:42;1.98;;;0.75;;
49464;SDS011;35358;49.342;8.802;2022-08-01T15:34:08;2.47;;;0.70;;
49464;SDS011;35358;49.342;8.802;2022-08-01T15:36:33;3.78;;;0.70;;